Time;durP1;ratioP1;P1;durP2;ratioP2;P2;SDS_P1;SDS_P2;PMS_P1;PMS_P2;Temp;Humidity;BMP_temperature;BMP_pressure;BME280_temperature;BME280_humidity;BME280_pressure;Samples;Min_cycle;Max_cycle;Signal;HPM_P1;HPM_P2
2021/07/06 00:00:26;;;;;;;15.63;12.60;;;;;;;30.27;37.23;100574.88;143732;583;46004;-92
2021/07/06 00:02:54;;;;;;;8.77;4.25;;;;;;;30.28;36.14;100577.31;143730;582;47002;-93
2021/07/06 00:05:21;;;;;;;6.90;3.75;;;;;;;30.28;36.20;100566.22;143732;596;47010;-91
2021/07/06 00:07:49;;;;;;;4.95;4.25;;;;;;;30.28;36.25;100573.72;143732;584;47005;-91
2021/07/06 00:10:19;;;;;;;6.40;4.20;;;;;;;30.25;36.21;100572.44;143731;600;45923;-93
2021/07/06 00:12:46;;;;;;;6.85;3.72;;;;;;;30.25;35.80;100573.25;143732;675;47004;-93
2021/07/06 00:15:15;;;;;;;5.70;4.60;;;;;;;30.29;35.27;100573.41;143732;588;46013;-92
2021/07/06 00:17:42;;;;;;;3.97;3.50;;;;;;;30.29;36.07;100578.09;143729;574;47002;-93
2021/07/06 00:20:11;;;;;;;4.22;3.85;;;;;;;30.28;36.33;100573.72;143732;598;45922;-90
2021/07/06 00:22:40;;;;;;;6.00;4.05;;;;;;;30.25;36.36;100578.81;143727;589;49012;-92
2021/07/06 00:25:08;;;;;;;6.12;4.28;;;;;;;30.24;36.34;100582.72;143734;575;45921;-94
2021/07/06 00:27:34;;;;;;;7.20;4.05;;;;;;;30.25;36.46;100580.75;143733;601;47002;-92
2021/07/06 00:30:03;;;;;;;4.55;4.10;;;;;;;30.26;36.18;100587.91;143733;713;45010;-92
2021/07/06 00:32:31;;;;;;;4.40;4.00;;;;;;;30.27;36.22;100583.19;143736;617;46006;-93
2021/07/06 00:34:58;;;;;;;5.70;4.10;;;;;;;30.26;36.21;100585.16;143733;691;46010;-93
2021/07/06 00:37:26;;;;;;;4.70;4.25;;;;;;;30.23;36.53;100583.03;143725;595;48010;-90
2021/07/06 00:39:53;;;;;;;6.12;4.22;;;;;;;30.21;36.53;100580.63;143732;627;46008;-90
2021/07/06 00:42:20;;;;;;;3.87;3.47;;;;;;;30.19;36.86;100577.38;143721;570;50002;-89
2021/07/06 00:44:47;;;;;;;6.25;3.90;;;;;;;30.19;36.86;100576.53;143735;585;46015;-90
2021/07/06 00:47:14;;;;;;;5.03;3.95;;;;;;;30.15;37.23;100575.63;143729;601;48004;-91
2021/07/06 00:49:42;;;;;;;6.20;4.07;;;;;;;30.13;37.02;100580.69;143732;567;45017;-90
2021/07/06 00:52:08;;;;;;;10.15;3.80;;;;;;;30.12;37.69;100579.06;143737;581;46015;-91
2021/07/06 00:54:57;;;;;;;5.43;4.47;;;;;;;30.09;38.42;100580.53;143730;709;49010;-87
2021/07/06 00:57:41;;;;;;;5.50;4.62;;;;;;;30.08;38.72;100570.62;143733;647;46009;-91
2021/07/06 01:00:11;;;;;;;6.55;4.40;;;;;;;30.10;38.34;100577.44;143731;741;45926;-89
2021/07/06 01:02:38;;;;;;;6.37;4.95;;;;;;;30.11;39.17;100572.69;143735;670;47002;-90
2021/07/06 01:05:11;;;;;;;6.75;4.80;;;;;;;30.11;39.25;100569.91;143733;567;46010;-90
2021/07/06 01:07:39;;;;;;;6.43;4.12;;;;;;;30.10;39.22;100580.19;143729;609;47004;-91
2021/07/06 01:10:08;;;;;;;5.22;4.50;;;;;;;30.10;39.41;100577.44;143732;596;45925;-90
2021/07/06 01:12:46;;;;;;;6.80;4.55;;;;;;;30.08;39.41;100579.72;143718;616;49019;-91
2021/07/06 01:15:18;;;;;;;9.50;4.28;;;;;;;30.09;38.99;100591.62;143733;572;46029;-92
2021/07/06 01:17:56;;;;;;;5.45;4.25;;;;;;;30.10;38.60;100582.97;143732;590;48002;-90
2021/07/06 01:20:24;;;;;;;7.97;4.57;;;;;;;30.11;38.79;100597.59;143733;589;45011;-90
2021/07/06 01:22:51;;;;;;;5.28;4.32;;;;;;;30.14;38.95;100590.59;143735;594;47004;-91
2021/07/06 01:25:18;;;;;;;6.72;4.47;;;;;;;30.13;38.85;100606.41;143731;578;48016;-89
2021/07/06 01:27:46;;;;;;;9.52;4.53;;;;;;;30.15;38.25;100597.78;143730;612;47004;-89
2021/07/06 01:30:16;;;;;;;5.62;3.83;;;;;;;30.10;37.78;100601.53;143731;709;47006;-90
2021/07/06 01:32:47;;;;;;;4.22;3.58;;;;;;;30.14;36.96;100601.69;143734;567;45013;-90
2021/07/06 01:35:16;;;;;;;4.10;3.70;;;;;;;30.14;36.70;100598.91;143730;583;47012;-93
2021/07/06 01:37:48;;;;;;;4.75;3.90;;;;;;;30.10;36.96;100604.28;143734;664;46002;-90
2021/07/06 01:40:17;;;;;;;3.50;3.20;;;;;;;30.10;37.20;100607.88;143734;574;46002;-91
2021/07/06 01:42:44;;;;;;;4.20;3.80;;;;;;;30.09;36.66;100608.25;143736;573;47005;-92
2021/07/06 01:45:14;;;;;;;4.35;3.83;;;;;;;30.06;36.99;100604.16;143733;597;46010;-91
2021/07/06 01:47:49;;;;;;;4.30;3.58;;;;;;;30.03;37.33;100612.34;143724;566;50004;-89
2021/07/06 01:50:30;;;;;;;4.35;3.95;;;;;;;30.02;36.91;100610.72;143731;608;46004;-90
2021/07/06 01:53:07;;;;;;;4.32;3.70;;;;;;;30.04;36.82;100605.66;143736;642;47004;-91
2021/07/06 01:55:42;;;;;;;4.62;3.70;;;;;;;30.06;36.75;100598.62;143736;641;45925;-90
2021/07/06 01:58:11;;;;;;;3.58;3.28;;;;;;;30.09;36.39;100599.94;143731;589;47005;-91
2021/07/06 02:00:42;;;;;;;5.30;3.65;;;;;;;30.08;37.45;100601.88;143733;571;45015;-91
2021/07/06 02:03:10;;;;;;;4.40;3.72;;;;;;;30.10;36.39;100607.06;143727;568;49009;-92
2021/07/06 02:05:45;;;;;;;4.45;4.03;;;;;;;30.08;36.94;100601.06;143732;568;47012;-90
2021/07/06 02:08:14;;;;;;;5.80;4.40;;;;;;;30.06;36.95;100604.16;143731;567;47013;-89
2021/07/06 02:10:43;;;;;;;5.03;4.05;;;;;;;30.05;38.02;100604.50;143730;605;46002;-90
2021/07/06 02:13:14;;;;;;;6.72;4.15;;;;;;;30.00;38.40;100607.47;143734;660;47002;-90
2021/07/06 02:15:41;;;;;;;4.57;4.18;;;;;;;29.94;38.70;100615.12;143730;610;47010;-90
2021/07/06 02:18:15;;;;;;;5.90;4.03;;;;;;;29.89;38.55;100610.59;143730;576;49004;-89
2021/07/06 02:20:42;;;;;;;6.15;3.67;;;;;;;29.87;38.67;100606.50;143723;573;49997;-90
2021/07/06 02:23:09;;;;;;;7.10;4.40;;;;;;;29.84;38.63;100615.47;143737;567;47006;-90
2021/07/06 02:25:35;;;;;;;8.38;4.05;;;;;;;29.83;38.39;100611.09;143734;695;46010;-93
2021/07/06 02:28:03;;;;;;;8.02;3.97;;;;;;;29.81;38.03;100614.19;143733;578;47009;-92
2021/07/06 02:30:30;;;;;;;4.00;3.58;;;;;;;29.78;37.40;100614.84;143734;640;45010;-92
2021/07/06 02:32:58;;;;;;;7.70;4.00;;;;;;;29.79;36.88;100619.25;143732;726;48006;-91
2021/07/06 02:35:27;;;;;;;4.90;3.75;;;;;;;29.79;36.68;100624.78;143733;570;47010;-89
2021/07/06 02:37:56;;;;;;;8.90;3.75;;;;;;;29.80;36.51;100626.41;143735;572;46010;-89
2021/07/06 02:40:23;;;;;;;5.22;3.70;;;;;;;29.79;36.99;100617.31;143734;579;45923;-92
2021/07/06 02:42:50;;;;;;;5.90;3.95;;;;;;;29.76;37.21;100630.97;143738;614;46025;-91
2021/07/06 02:45:18;;;;;;;3.83;3.42;;;;;;;29.69;37.23;100633.47;143734;584;45922;-90
2021/07/06 02:47:47;;;;;;;6.10;3.90;;;;;;;29.65;37.08;100631.34;143734;597;47002;-91
2021/07/06 02:50:18;;;;;;;5.47;3.60;;;;;;;29.64;37.51;100632.50;143734;565;45015;-92
2021/07/06 02:52:45;;;;;;;4.03;3.70;;;;;;;29.62;36.89;100631.22;143733;572;47006;-90
2021/07/06 02:55:13;;;;;;;6.40;3.85;;;;;;;29.62;37.21;100636.75;143732;652;47010;-89
2021/07/06 02:57:41;;;;;;;7.57;4.20;;;;;;;29.55;37.79;100641.97;143735;584;46003;-90
2021/07/06 03:00:22;;;;;;;7.37;4.40;;;;;;;29.54;37.66;100634.81;143732;607;45925;-90
2021/07/06 03:02:52;;;;;;;8.93;4.87;;;;;;;29.52;38.14;100645.38;143734;594;47006;-89
2021/07/06 03:05:22;;;;;;;8.30;4.03;;;;;;;29.49;38.18;100649.63;143735;597;46011;-90
2021/07/06 03:07:49;;;;;;;6.15;3.65;;;;;;;29.47;38.67;100652.75;143732;568;46012;-93
2021/07/06 03:10:19;;;;;;;6.47;4.43;;;;;;;29.46;38.32;100650.28;143734;598;45010;-91
2021/07/06 03:12:47;;;;;;;8.20;4.03;;;;;;;29.42;38.95;100652.09;143735;643;48012;-91
2021/07/06 03:15:17;;;;;;;6.25;5.50;;;;;;;29.39;38.52;100648.03;143733;601;46010;-92
2021/07/06 03:17:45;;;;;;;7.70;6.85;;;;;;;29.42;38.11;100652.91;143736;575;47004;-91
2021/07/06 03:20:14;;;;;;;5.07;4.60;;;;;;;29.46;35.99;100653.87;143731;599;46919;-91
2021/07/06 03:22:42;;;;;;;5.80;5.25;;;;;;;29.48;36.47;100648.81;143730;604;47006;-92
2021/07/06 03:25:11;;;;;;;6.90;3.65;;;;;;;29.45;35.75;100665.25;143735;732;46010;-88
2021/07/06 03:27:43;;;;;;;7.25;3.60;;;;;;;29.47;35.89;100663.81;143735;578;46006;-90
2021/07/06 03:30:37;;;;;;;5.18;3.83;;;;;;;29.46;35.54;100664.94;143737;573;45924;-89
2021/07/06 03:33:07;;;;;;;7.62;3.95;;;;;;;29.47;35.91;100668.53;143734;572;47016;-91
2021/07/06 03:35:33;;;;;;;7.22;3.87;;;;;;;29.51;35.67;100663.97;143734;567;47011;-92
2021/07/06 03:38:00;;;;;;;5.70;3.80;;;;;;;29.50;35.42;100660.37;143732;600;47928;-90
2021/07/06 03:40:29;;;;;;;7.70;4.22;;;;;;;29.50;35.62;100665.09;143730;572;47925;-89
2021/07/06 03:42:56;;;;;;;7.10;3.70;;;;;;;29.51;36.21;100663.97;143738;584;46010;-92
2021/07/06 03:45:24;;;;;;;8.05;3.60;;;;;;;29.48;36.42;100668.19;143732;614;47012;-93
2021/07/06 03:47:51;;;;;;;6.10;4.65;;;;;;;29.50;37.34;100665.91;143728;590;50002;-90
2021/07/06 03:50:21;;;;;;;8.00;5.43;;;;;;;29.47;37.45;100671.28;143734;620;45922;-89
2021/07/06 03:52:51;;;;;;;8.43;4.50;;;;;;;29.49;37.18;100672.56;143736;588;47006;-92
2021/07/06 03:55:18;;;;;;;12.50;4.20;;;;;;;29.48;36.78;100668.19;143734;585;46008;-91
2021/07/06 03:57:45;;;;;;;6.07;4.15;;;;;;;29.49;36.99;100671.78;143728;575;50006;-91
2021/07/06 04:00:16;;;;;;;7.97;4.12;;;;;;;29.44;36.84;100671.94;143732;608;46004;-92
2021/07/06 04:02:43;;;;;;;6.87;4.40;;;;;;;29.45;37.33;100679.09;143736;576;47002;-90
2021/07/06 04:05:12;;;;;;;6.95;4.32;;;;;;;29.42;37.31;100672.28;143734;587;47012;-91
2021/07/06 04:07:39;;;;;;;12.90;4.62;;;;;;;29.39;36.55;100669.38;143735;597;46013;-91
2021/07/06 04:10:12;;;;;;;8.27;4.28;;;;;;;29.45;36.68;100677.16;143732;602;46006;-90
2021/07/06 04:12:39;;;;;;;19.45;6.47;;;;;;;29.50;37.54;100673.41;143737;622;47005;-92
2021/07/06 04:15:08;;;;;;;12.70;4.95;;;;;;;29.48;37.63;100672.91;143733;594;47012;-88
2021/07/06 04:17:35;;;;;;;18.83;5.07;;;;;;;29.49;38.46;100680.06;143714;592;51002;-89
2021/07/06 04:20:07;;;;;;;18.00;4.90;;;;;;;29.50;38.13;100676.16;143734;573;45010;-90
2021/07/06 04:22:35;;;;;;;8.85;4.95;;;;;;;29.48;39.19;100692.28;143737;706;47004;-88
2021/07/06 04:25:02;;;;;;;29.45;5.87;;;;;;;29.48;39.12;100684.78;143733;566;47010;-91
2021/07/06 04:27:29;;;;;;;10.70;4.80;;;;;;;29.48;37.66;100682.00;143723;586;48000;-90
2021/07/06 04:29:56;;;;;;;16.52;5.30;;;;;;;29.57;37.79;100683.97;143735;605;45010;-91
2021/07/06 04:32:23;;;;;;;10.95;5.32;;;;;;;29.59;38.70;100699.09;143735;582;48012;-93
2021/07/06 04:34:51;;;;;;;14.95;5.05;;;;;;;29.66;38.17;100695.81;143735;600;47008;-91
2021/07/06 04:37:18;;;;;;;16.00;5.25;;;;;;;29.74;38.25;100706.06;143735;660;46004;-91
2021/07/06 04:39:45;;;;;;;14.02;5.25;;;;;;;29.78;38.10;100708.97;143734;572;46004;-92
2021/07/06 04:42:15;;;;;;;8.35;5.40;;;;;;;29.79;38.23;100707.84;143735;606;48002;-90
2021/07/06 04:44:43;;;;;;;12.75;5.87;;;;;;;29.80;39.18;100707.53;143735;586;47008;-91
2021/07/06 04:47:10;;;;;;;16.92;6.40;;;;;;;29.80;38.59;100720.53;143735;591;46004;-94
2021/07/06 04:49:38;;;;;;;13.57;6.25;;;;;;;29.73;39.76;100721.03;143734;568;45010;-92
2021/07/06 04:52:08;;;;;;;10.52;5.95;;;;;;;29.78;39.31;100717.28;143736;570;47002;-90
2021/07/06 04:54:35;;;;;;;8.98;5.50;;;;;;;29.83;39.10;100717.09;143736;584;46010;-89
2021/07/06 04:57:04;;;;;;;14.70;6.07;;;;;;;29.76;39.78;100723.16;143735;567;47004;-92
2021/07/06 04:59:31;;;;;;;11.27;5.53;;;;;;;29.81;39.67;100730.47;143733;573;46002;-91
2021/07/06 05:01:59;;;;;;;11.20;6.30;;;;;;;29.90;39.91;100727.66;143738;596;46004;-91
2021/07/06 05:04:51;;;;;;;7.47;5.32;;;;;;;29.96;39.42;100731.94;143736;581;46010;-88
2021/07/06 05:07:38;;;;;;;13.60;7.05;;;;;;;29.98;39.09;100732.41;143735;639;46006;-88
2021/07/06 05:10:07;;;;;;;10.82;5.60;;;;;;;30.04;38.92;100739.38;143737;603;46002;-92
2021/07/06 05:12:34;;;;;;;8.48;6.60;;;;;;;30.01;38.50;100750.31;143736;671;47004;-91
2021/07/06 05:15:02;;;;;;;10.90;6.10;;;;;;;29.93;38.43;100744.44;143735;604;46006;-91
2021/07/06 05:17:29;;;;;;;9.05;6.53;;;;;;;29.95;38.07;100749.66;143733;569;47002;-88
2021/07/06 05:19:57;;;;;;;12.43;5.70;;;;;;;30.07;38.02;100758.13;143735;589;45010;-92
2021/07/06 05:22:24;;;;;;;7.28;5.50;;;;;;;29.99;37.71;100761.75;143738;627;46006;-91
2021/07/06 05:24:51;;;;;;;10.70;6.37;;;;;;;30.07;37.46;100757.31;143735;586;47012;-92
2021/07/06 05:27:19;;;;;;;8.75;5.80;;;;;;;30.16;38.67;100758.09;143734;589;47002;-91
2021/07/06 05:29:46;;;;;;;14.32;5.68;;;;;;;30.18;39.60;100755.78;143735;595;46002;-90
2021/07/06 05:32:21;;;;;;;12.90;5.47;;;;;;;30.21;39.98;100763.44;143736;593;47004;-89
2021/07/06 05:34:49;;;;;;;8.77;5.60;;;;;;;30.29;40.22;100756.25;143734;594;47012;-91
2021/07/06 05:37:16;;;;;;;14.57;5.68;;;;;;;30.33;40.16;100759.16;143712;580;50008;-91
2021/07/06 05:39:44;;;;;;;11.00;5.90;;;;;;;30.38;39.49;100770.06;143732;578;46008;-90
2021/07/06 05:42:11;;;;;;;8.90;5.00;;;;;;;30.26;40.76;100768.00;143736;662;47004;-91
2021/07/06 05:44:39;;;;;;;7.55;5.93;;;;;;;30.26;40.74;100770.75;143732;672;47008;-89
2021/07/06 05:47:07;;;;;;;13.15;5.45;;;;;;;30.19;40.15;100773.22;143729;572;50004;-90
2021/07/06 05:49:35;;;;;;;8.95;5.43;;;;;;;30.23;40.58;100763.94;143736;573;46002;-93
2021/07/06 05:52:02;;;;;;;8.50;5.55;;;;;;;30.23;41.14;100769.47;143736;695;47004;-90
2021/07/06 05:54:29;;;;;;;10.50;5.60;;;;;;;30.36;40.39;100770.38;143734;574;46925;-90
2021/07/06 05:56:57;;;;;;;12.37;5.87;;;;;;;30.33;39.65;100771.06;143734;685;47014;-90
2021/07/06 05:59:24;;;;;;;8.23;5.18;;;;;;;30.38;40.16;100781.16;143735;575;45010;-91
2021/07/06 06:01:51;;;;;;;7.85;4.95;;;;;;;30.34;40.06;100781.00;143737;595;47002;-91
2021/07/06 06:04:18;;;;;;;12.70;6.00;;;;;;;30.47;40.64;100779.13;143734;610;47009;-90
2021/07/06 06:06:46;;;;;;;11.63;5.45;;;;;;;30.56;39.65;100779.13;143728;613;48025;-92
2021/07/06 06:09:13;;;;;;;10.80;5.93;;;;;;;30.60;40.21;100785.63;143735;576;46008;-92
2021/07/06 06:11:40;;;;;;;14.25;5.97;;;;;;;30.58;38.80;100774.06;143736;593;47005;-91
2021/07/06 06:14:07;;;;;;;8.60;5.90;;;;;;;30.68;38.27;100778.41;143734;718;47012;-90
2021/07/06 06:16:34;;;;;;;11.12;5.93;;;;;;;30.74;38.15;100777.09;143734;568;47013;-90
2021/07/06 06:19:01;;;;;;;12.73;5.55;;;;;;;30.72;37.90;100778.56;143736;640;45010;-93
2021/07/06 06:21:27;;;;;;;14.13;5.65;;;;;;;30.72;36.59;100787.69;143735;612;47006;-92
2021/07/06 06:23:54;;;;;;;10.98;4.82;;;;;;;30.72;36.61;100784.09;143728;761;49008;-91
2021/07/06 06:26:22;;;;;;;9.25;4.95;;;;;;;30.79;36.25;100776.91;143735;583;46012;-90
2021/07/06 06:28:49;;;;;;;7.45;5.00;;;;;;;30.92;36.31;100793.63;143734;684;45926;-91
2021/07/06 06:31:17;;;;;;;8.88;5.10;;;;;;;31.03;36.63;100783.75;143736;618;47002;-91
2021/07/06 06:33:44;;;;;;;10.65;5.20;;;;;;;31.08;35.81;100783.56;143732;573;47012;-88
2021/07/06 06:36:12;;;;;;;9.07;4.40;;;;;;;31.13;35.79;100771.44;143734;574;47004;-89
2021/07/06 06:39:04;;;;;;;9.52;5.10;;;;;;;31.17;37.01;100782.69;143738;656;45010;-87
2021/07/06 06:41:51;;;;;;;14.52;5.28;;;;;;;31.20;37.40;100793.94;143740;603;46004;-92
2021/07/06 06:44:19;;;;;;;9.13;4.90;;;;;;;31.10;35.98;100786.81;143733;586;47012;-90
2021/07/06 06:46:45;;;;;;;6.43;5.25;;;;;;;31.20;36.82;100788.41;143734;574;46008;-93
2021/07/06 06:49:13;;;;;;;7.78;5.07;;;;;;;31.28;37.48;100789.47;143734;582;45926;-91
2021/07/06 06:51:40;;;;;;;9.63;4.93;;;;;;;31.33;36.29;100789.25;143737;592;47004;-91
2021/07/06 06:54:07;;;;;;;15.35;4.75;;;;;;;31.39;36.55;100781.56;99570;57;10047302;-92
2021/07/06 06:56:36;;;;;;;7.90;4.80;;;;;;;31.44;37.25;100784.94;143735;567;46024;-92
2021/07/06 06:59:03;;;;;;;7.20;4.60;;;;;;;31.49;35.04;100791.44;143735;576;46004;-94
2021/07/06 07:01:30;;;;;;;6.65;4.18;;;;;;;31.52;34.58;100786.00;143739;605;47000;-92
2021/07/06 07:03:58;;;;;;;5.47;4.00;;;;;;;31.53;34.56;100790.41;143734;608;47009;-92
2021/07/06 07:06:25;;;;;;;6.62;4.43;;;;;;;31.61;36.48;100789.50;143736;590;47004;-92
2021/07/06 07:08:52;;;;;;;4.78;4.15;;;;;;;31.66;35.59;100784.91;143735;573;45008;-90
2021/07/06 07:11:20;;;;;;;11.63;5.05;;;;;;;31.72;37.72;100786.34;143739;573;46002;-90
2021/07/06 07:13:48;;;;;;;9.70;5.45;;;;;;;31.80;39.04;100791.00;143736;603;47008;-91
2021/07/06 07:16:15;;;;;;;8.57;3.75;;;;;;;31.81;33.99;100786.28;143736;583;47002;-91
2021/07/06 07:18:44;;;;;;;5.25;4.10;;;;;;;31.84;32.80;100778.06;143733;600;46004;-88
2021/07/06 07:21:11;;;;;;;5.65;3.65;;;;;;;32.01;33.13;100787.34;143736;589;47002;-87
2021/07/06 07:23:39;;;;;;;17.50;5.95;;;;;;;32.14;34.71;100783.44;143736;577;47010;-90
2021/07/06 07:26:07;;;;;;;6.12;3.80;;;;;;;32.26;32.48;100784.62;143737;569;46017;-89
2021/07/06 07:28:34;;;;;;;5.75;4.00;;;;;;;32.29;31.03;100784.78;143728;568;49014;-89
2021/07/06 07:31:01;;;;;;;4.87;3.78;;;;;;;32.33;32.51;100771.00;143740;597;46004;-90
2021/07/06 07:33:28;;;;;;;7.32;3.85;;;;;;;32.44;32.04;100772.16;143736;584;45928;-89
2021/07/06 07:35:56;;;;;;;6.00;4.07;;;;;;;32.51;32.40;100785.50;143735;622;47004;-90
2021/07/06 07:38:24;;;;;;;5.35;3.55;;;;;;;32.57;33.44;100774.94;143728;573;50002;-88
2021/07/06 07:40:52;;;;;;;6.15;4.70;;;;;;;32.57;34.85;100784.06;143738;583;46003;-90
2021/07/06 07:43:19;;;;;;;5.45;4.40;;;;;;;32.60;31.52;100782.59;143736;593;47010;-88
2021/07/06 07:45:46;;;;;;;7.82;4.20;;;;;;;32.68;31.41;100780.84;143734;635;48004;-88
2021/07/06 07:48:16;;;;;;;4.50;3.70;;;;;;;32.70;31.71;100770.97;143735;574;46004;-90
2021/07/06 07:50:43;;;;;;;5.32;4.32;;;;;;;32.74;29.95;100769.13;143738;662;47006;-89
2021/07/06 07:53:10;;;;;;;4.78;3.87;;;;;;;32.79;30.57;100770.84;143735;586;46012;-90
2021/07/06 07:55:38;;;;;;;4.82;4.10;;;;;;;32.84;30.43;100770.66;143735;590;47004;-88
2021/07/06 07:58:05;;;;;;;7.55;4.50;;;;;;;32.91;31.16;100773.69;143736;730;46006;-90
2021/07/06 08:00:33;;;;;;;4.80;4.25;;;;;;;32.90;29.75;100777.62;143735;566;47002;-90
2021/07/06 08:03:00;;;;;;;5.37;4.30;;;;;;;32.98;29.89;100770.28;143736;575;47011;-90
2021/07/06 08:05:27;;;;;;;5.78;4.78;;;;;;;32.99;30.97;100766.34;143736;597;46004;-89
2021/07/06 08:07:55;;;;;;;5.78;4.10;;;;;;;33.01;30.54;100771.56;143736;592;45008;-91
2021/07/06 08:10:22;;;;;;;5.47;3.95;;;;;;;33.03;31.07;100772.03;143738;727;46004;-89
2021/07/06 08:12:49;;;;;;;4.55;4.15;;;;;;;33.10;30.79;100769.44;143729;576;47012;-88
2021/07/06 08:15:42;;;;;;;4.00;3.65;;;;;;;33.19;29.88;100772.91;143738;586;46006;-88
2021/07/06 08:18:10;;;;;;;5.87;4.00;;;;;;;33.25;30.97;100765.94;143733;663;45919;-90
2021/07/06 08:20:36;;;;;;;7.68;4.72;;;;;;;33.36;30.13;100771.03;143739;591;46004;-90
2021/07/06 08:23:04;;;;;;;14.77;4.82;;;;;;;33.40;31.73;100766.37;143735;606;45012;-91
2021/07/06 08:25:31;;;;;;;5.97;4.50;;;;;;;33.40;29.41;100774.72;143736;666;46002;-91
2021/07/06 08:27:58;;;;;;;4.90;4.40;;;;;;;33.50;30.58;100765.84;143733;567;45925;-88
2021/07/06 08:30:25;;;;;;;6.62;4.20;;;;;;;33.59;29.73;100785.19;143736;588;47004;-91
2021/07/06 08:32:52;;;;;;;6.30;4.20;;;;;;;33.64;28.27;100775.75;143733;608;48016;-90
2021/07/06 08:35:19;;;;;;;5.90;4.30;;;;;;;33.69;29.41;100776.34;143732;630;47010;-89
2021/07/06 08:37:46;;;;;;;4.70;4.10;;;;;;;33.75;28.75;100773.28;143732;672;45927;-88
2021/07/06 08:40:14;;;;;;;6.10;4.12;;;;;;;33.75;27.99;100771.31;143737;624;46006;-90
2021/07/06 08:42:41;;;;;;;8.52;3.95;;;;;;;33.76;29.07;100783.25;143737;586;46010;-90
2021/07/06 08:45:10;;;;;;;6.15;4.28;;;;;;;33.82;29.01;100771.50;143734;680;47010;-89
2021/07/06 08:47:45;;;;;;;5.97;4.32;;;;;;;33.77;29.05;100782.09;143734;576;45008;-93
2021/07/06 08:50:12;;;;;;;3.90;3.40;;;;;;;33.80;29.44;100776.59;143737;594;47006;-88
2021/07/06 08:52:47;;;;;;;4.90;3.60;;;;;;;33.86;28.22;100783.53;143736;609;46010;-90
2021/07/06 08:55:16;;;;;;;4.80;4.30;;;;;;;33.92;27.38;100774.97;143732;577;47002;-91
2021/07/06 08:57:45;;;;;;;10.00;3.80;;;;;;;33.92;26.84;100775.75;143732;624;45925;-89
2021/07/06 09:00:14;;;;;;;7.00;3.95;;;;;;;33.97;26.61;100777.50;143736;572;46006;-90
2021/07/06 09:02:41;;;;;;;9.82;3.70;;;;;;;33.89;25.91;100770.06;143733;624;46010;-89
2021/07/06 09:05:27;;;;;;;4.45;3.53;;;;;;;33.99;27.17;100775.97;143735;658;46004;-90
2021/07/06 09:07:55;;;;;;;4.53;3.35;;;;;;;34.06;26.97;100769.75;143732;675;45008;-92
2021/07/06 09:10:27;;;;;;;6.78;3.70;;;;;;;34.17;26.14;100770.03;143735;644;48002;-92
2021/07/06 09:12:54;;;;;;;6.03;3.85;;;;;;;34.25;25.02;100763.44;143735;579;46004;-90
2021/07/06 09:15:39;;;;;;;4.87;3.72;;;;;;;34.34;25.39;100766.06;143734;584;47002;-89
2021/07/06 09:18:15;;;;;;;5.12;3.45;;;;;;;34.46;25.78;100756.81;143723;568;50002;-91
2021/07/06 09:20:44;;;;;;;6.65;3.42;;;;;;;34.46;23.33;100763.22;143719;638;50008;-90
2021/07/06 09:23:31;;;;;;;4.65;2.97;;;;;;;34.50;23.74;100759.72;143734;581;46008;-88
2021/07/06 09:26:29;;;;;;;6.97;3.55;;;;;;;34.59;25.35;100760.31;143733;572;47002;-90
2021/07/06 09:29:03;;;;;;;4.10;3.55;;;;;;;34.70;26.10;100757.78;143733;569;45012;-89
2021/07/06 09:31:39;;;;;;;5.10;3.40;;;;;;;34.83;25.79;100766.84;143737;597;46002;-91
2021/07/06 09:34:14;;;;;;;5.18;4.05;;;;;;;34.83;24.81;100769.63;143735;582;46008;-88
2021/07/06 09:36:45;;;;;;;4.00;3.60;;;;;;;34.78;24.96;100767.91;143727;567;47004;-89
2021/07/06 09:39:29;;;;;;;8.13;3.70;;;;;;;34.76;23.85;100765.50;143733;579;46002;-89
2021/07/06 09:41:59;;;;;;;10.48;3.33;;;;;;;34.79;23.49;100765.94;143732;595;48006;-88
2021/07/06 09:44:32;;;;;;;5.32;3.08;;;;;;;34.83;24.02;100766.84;143734;567;46012;-91
2021/07/06 09:47:08;;;;;;;3.90;3.03;;;;;;;34.90;24.00;100755.81;143735;586;46004;-89
2021/07/06 09:49:53;;;;;;;3.70;3.30;;;;;;;34.90;23.54;100756.63;143734;594;46008;-91
2021/07/06 09:52:21;;;;;;;3.47;3.17;;;;;;;34.95;23.61;100758.34;143735;572;46008;-89
2021/07/06 09:54:52;;;;;;;5.62;2.75;;;;;;;34.91;23.07;100757.44;143731;570;47012;-89
2021/07/06 09:57:28;;;;;;;4.87;3.10;;;;;;;34.97;23.47;100753.22;143732;600;47004;-88
2021/07/06 10:00:12;;;;;;;4.82;2.50;;;;;;;35.04;22.98;100749.78;143731;586;45921;-89
2021/07/06 10:02:39;;;;;;;;;;;;;;;35.11;23.15;100758.31;143740;982;48004;-89
2021/07/06 10:05:10;;;;;;;4.40;3.00;;;;;;;35.14;21.69;100746.38;143737;580;47012;-90
2021/07/06 10:07:39;;;;;;;4.32;2.95;;;;;;;35.24;22.67;100749.78;143729;656;49002;-90
2021/07/06 10:10:14;;;;;;;8.32;2.58;;;;;;;35.27;20.84;100752.63;143734;582;45925;-91
2021/07/06 10:12:49;;;;;;;5.50;2.30;;;;;;;35.26;22.06;100745.44;143733;587;46002;-90
2021/07/06 10:15:18;;;;;;;5.30;2.92;;;;;;;35.26;22.54;100758.59;143735;624;46008;-92
2021/07/06 10:17:47;;;;;;;5.95;2.37;;;;;;;35.28;21.62;100747.88;143730;611;49002;-91
2021/07/06 10:20:20;;;;;;;6.15;2.78;;;;;;;35.32;22.26;100757.12;143732;623;46015;-92
2021/07/06 10:22:47;;;;;;;;;;;;;;;35.36;21.59;100752.41;143737;985;49000;-89
2021/07/06 10:25:15;;;;;;;3.20;2.72;;;;;;;35.41;21.05;100752.13;143740;593;46010;-89
2021/07/06 10:27:51;;;;;;;3.08;2.70;;;;;;;35.40;20.62;100772.03;143735;568;46004;-90
2021/07/06 10:30:20;;;;;;;3.25;2.10;;;;;;;35.42;20.91;100753.75;143733;596;46004;-88
2021/07/06 10:33:13;;;;;;;3.75;2.00;;;;;;;35.47;19.29;100753.50;143736;576;46002;-90
2021/07/06 10:35:47;;;;;;;3.15;2.37;;;;;;;35.55;20.22;100757.22;143732;624;47008;-89
2021/07/06 10:38:58;;;;;;;3.70;2.45;;;;;;;35.63;19.93;100764.53;143732;589;46006;-89
2021/07/06 10:41:56;;;;;;;3.25;2.80;;;;;;;35.67;20.12;100756.22;143731;604;45930;-88
2021/07/06 10:44:32;;;;;;;5.97;2.45;;;;;;;35.72;20.03;100744.75;143735;594;45021;-90
2021/07/06 10:46:59;;;;;;;6.32;2.30;;;;;;;35.72;20.03;100744.75;143733;595;46012;-89
2021/07/06 10:49:34;;;;;;;4.10;2.30;;;;;;;35.72;19.89;100730.00;143727;567;47004;-89
2021/07/06 10:52:03;;;;;;;3.50;2.30;;;;;;;35.76;19.92;100745.63;143729;594;49002;-90
2021/07/06 10:54:33;;;;;;;4.62;2.10;;;;;;;35.79;19.73;100735.69;143728;614;46007;-91
2021/07/06 10:57:28;;;;;;;3.00;2.47;;;;;;;35.79;19.74;100736.50;143731;572;46928;-89
2021/07/06 10:59:57;;;;;;;4.57;2.67;;;;;;;35.83;19.68;100727.38;143730;580;47004;-90
2021/07/06 11:02:28;;;;;;;5.75;2.53;;;;;;;35.86;19.09;100721.84;143732;602;45922;-91
2021/07/06 11:04:57;;;;;;;3.70;2.70;;;;;;;35.90;19.91;100721.91;143736;635;47004;-91
2021/07/06 11:07:51;;;;;;;2.75;1.87;;;;;;;36.01;20.08;100722.13;143732;586;47010;-89
2021/07/06 11:10:20;;;;;;;3.03;2.30;;;;;;;36.04;20.22;100721.37;143734;586;47004;-90
2021/07/06 11:12:49;;;;;;;2.60;2.28;;;;;;;36.13;20.45;100718.31;143730;602;46000;-90
2021/07/06 11:15:27;;;;;;;2.92;2.58;;;;;;;36.08;20.02;100717.44;143736;572;46004;-88
2021/07/06 11:18:03;;;;;;;3.25;2.75;;;;;;;36.10;20.50;100723.47;143732;638;47010;-88
2021/07/06 11:20:44;;;;;;;4.15;3.10;;;;;;;36.12;20.45;100723.09;143735;584;46002;-90
2021/07/06 11:23:33;;;;;;;5.43;3.33;;;;;;;36.11;20.68;100730.69;143732;611;47002;-87
2021/07/06 11:26:05;;;;;;;2.67;2.45;;;;;;;36.10;20.89;100722.66;143740;610;45015;-89
2021/07/06 11:28:48;;;;;;;4.07;2.90;;;;;;;36.14;20.33;100719.94;143732;591;46010;-89
2021/07/06 11:31:20;;;;;;;5.00;2.40;;;;;;;36.13;20.00;100724.72;143735;570;46010;-89
2021/07/06 11:33:47;;;;;;;4.93;3.30;;;;;;;36.10;20.49;100715.09;143734;598;46008;-90
2021/07/06 11:36:26;;;;;;;3.10;2.80;;;;;;;36.15;19.91;100704.78;143734;592;47002;-90
2021/07/06 11:38:55;;;;;;;3.20;2.75;;;;;;;36.15;20.26;100715.97;143732;601;47013;-89